Time;durP1;ratioP1;P1;durP2;ratioP2;P2;SDS_P1;SDS_P2;PMS_P1;PMS_P2;Temp;Humidity;BMP_temperature;BMP_pressure;BME280_temperature;BME280_humidity;BME280_pressure;Samples;Min_cycle;Max_cycle;Signal;HPM_P1;HPM_P2
2023/06/23 00:01:21;;;;;;;6.13;3.28;;;;;;;;;;5074553;28;20116;-60
2023/06/23 00:03:47;;;;;;;5.97;4.60;;;;;;;;;;5073348;28;20114;-60
2023/06/23 00:06:14;;;;;;;8.57;4.40;;;;;;;;;;5074007;28;20114;-60
2023/06/23 00:08:40;;;;;;;5.22;3.05;;;;;;;;;;5071832;28;20663;-60
2023/06/23 00:11:07;;;;;;;6.75;3.55;;;;;;;;;;5073693;28;20135;-60
2023/06/23 00:13:34;;;;;;;8.98;4.57;;;;;;;;;;5074043;28;20040;-60
2023/06/23 00:16:01;;;;;;;7.90;4.00;;;;;;;;;;5074458;28;20053;-60
2023/06/23 00:18:27;;;;;;;5.22;3.58;;;;;;;;;;5075622;28;20037;-60
2023/06/23 00:20:54;;;;;;;5.63;2.75;;;;;;;;;;5074403;28;20056;-60
2023/06/23 00:23:21;;;;;;;6.20;3.75;;;;;;;;;;5075207;28;20589;-59
2023/06/23 00:25:47;;;;;;;5.65;3.63;;;;;;;;;;5073319;28;20120;-60
2023/06/23 00:28:13;;;;;;;6.13;3.70;;;;;;;;;;5074586;28;20556;-60
2023/06/23 00:30:39;;;;;;;5.13;3.20;;;;;;;;;;5074725;28;20041;-60
2023/06/23 00:33:05;;;;;;;6.30;3.90;;;;;;;;;;5075556;28;20041;-60
2023/06/23 00:35:31;;;;;;;6.18;3.63;;;;;;;;;;5074888;28;20036;-60
2023/06/23 00:37:57;;;;;;;7.40;3.53;;;;;;;;;;5075773;28;20040;-59
2023/06/23 00:40:24;;;;;;;5.13;3.72;;;;;;;;;;5073456;28;20052;-60
2023/06/23 00:42:53;;;;;;;6.40;3.97;;;;;;;;;;5074314;28;20076;-60
2023/06/23 00:45:20;;;;;;;8.80;3.72;;;;;;;;;;5074497;28;20763;-59
2023/06/23 00:47:46;;;;;;;3.97;3.13;;;;;;;;;;5075480;28;20051;-60
2023/06/23 00:50:15;;;;;;;8.30;4.38;;;;;;;;;;5076657;28;20258;-60
2023/06/23 00:52:41;;;;;;;7.05;3.50;;;;;;;;;;5078014;27;20057;-60
2023/06/23 00:55:07;;;;;;;5.78;3.22;;;;;;;;;;5078343;28;20044;-60
2023/06/23 00:57:34;;;;;;;10.25;4.05;;;;;;;;;;5078734;28;20040;-59
2023/06/23 01:00:00;;;;;;;7.28;3.60;;;;;;;;;;5093981;27;20037;-60
2023/06/23 01:02:27;;;;;;;6.50;3.50;;;;;;;;;;5077690;28;20055;-60
2023/06/23 01:04:54;;;;;;;7.82;3.47;;;;;;;;;;5078990;28;20592;-60
2023/06/23 01:07:39;;;;;;;6.30;3.78;;;;;;;;;;5077947;28;20074;-60
2023/06/23 01:10:06;;;;;;;5.72;3.55;;;;;;;;;;5077339;28;20119;-60
2023/06/23 01:12:39;;;;;;;6.20;3.72;;;;;;;;;;5077993;28;20048;-60
2023/06/23 01:15:13;;;;;;;7.85;3.85;;;;;;;;;;5071559;28;20651;-59
2023/06/23 01:17:58;;;;;;;6.25;3.67;;;;;;;;;;5075568;28;20047;-59
2023/06/23 01:20:29;;;;;;;4.47;3.60;;;;;;;;;;5077186;28;20566;-59
2023/06/23 01:23:04;;;;;;;6.72;4.35;;;;;;;;;;5076897;27;20058;-59
2023/06/23 01:25:40;;;;;;;7.13;3.13;;;;;;;;;;5076664;28;20048;-59
2023/06/23 01:28:33;;;;;;;6.47;3.45;;;;;;;;;;5076978;28;20040;-59
2023/06/23 01:31:00;;;;;;;8.18;3.60;;;;;;;;;;5071220;28;20055;-59
2023/06/23 01:33:31;;;;;;;5.40;3.20;;;;;;;;;;5076029;28;20049;-59
2023/06/23 01:36:03;;;;;;;9.38;2.80;;;;;;;;;;5077745;28;20579;-59
2023/06/23 01:38:35;;;;;;;13.45;4.88;;;;;;;;;;5078194;28;20041;-59
2023/06/23 01:41:01;;;;;;;6.00;3.55;;;;;;;;;;5076379;28;20034;-59
2023/06/23 01:43:31;;;;;;;6.47;3.30;;;;;;;;;;5078135;28;20121;-59
2023/06/23 01:46:03;;;;;;;9.77;4.13;;;;;;;;;;5076916;28;20750;-60
2023/06/23 01:48:30;;;;;;;6.03;3.75;;;;;;;;;;5077632;28;20044;-59
2023/06/23 01:50:57;;;;;;;8.80;4.30;;;;;;;;;;5077672;28;20573;-59
2023/06/23 01:53:24;;;;;;;6.05;4.05;;;;;;;;;;5077211;28;20076;-59
2023/06/23 01:55:51;;;;;;;6.60;3.47;;;;;;;;;;5075916;27;20045;-59
2023/06/23 01:58:18;;;;;;;7.88;3.70;;;;;;;;;;5077739;27;20099;-59
2023/06/23 02:00:45;;;;;;;6.10;3.15;;;;;;;;;;5077184;28;20095;-59
2023/06/23 02:03:11;;;;;;;7.18;3.55;;;;;;;;;;5076942;28;20584;-59
2023/06/23 02:05:38;;;;;;;7.85;4.40;;;;;;;;;;5076816;28;20044;-61
2023/06/23 02:08:04;;;;;;;9.82;4.80;;;;;;;;;;5077520;28;20090;-59
2023/06/23 02:10:31;;;;;;;7.55;3.92;;;;;;;;;;5076652;28;20047;-59
2023/06/23 02:12:58;;;;;;;5.18;2.83;;;;;;;;;;5077947;27;20040;-59
2023/06/23 02:15:24;;;;;;;8.85;4.80;;;;;;;;;;5077003;28;20041;-59
2023/06/23 02:17:52;;;;;;;6.45;4.35;;;;;;;;;;5077929;28;20047;-59
2023/06/23 02:20:19;;;;;;;7.30;4.68;;;;;;;;;;5076686;28;20452;-59
2023/06/23 02:22:49;;;;;;;6.47;3.35;;;;;;;;;;5075964;28;20060;-59
2023/06/23 02:25:15;;;;;;;7.05;3.70;;;;;;;;;;5076936;28;20049;-59
2023/06/23 02:27:41;;;;;;;8.20;3.40;;;;;;;;;;5089694;27;20563;-59
2023/06/23 02:30:08;;;;;;;7.95;4.05;;;;;;;;;;5077102;28;20094;-59
2023/06/23 02:32:34;;;;;;;5.40;3.70;;;;;;;;;;5076806;28;20052;-59
2023/06/23 02:35:00;;;;;;;8.20;3.78;;;;;;;;;;5077102;28;20041;-59
2023/06/23 02:37:26;;;;;;;7.38;4.07;;;;;;;;;;5076519;28;20047;-59
2023/06/23 02:40:00;;;;;;;7.32;4.03;;;;;;;;;;5073374;28;20036;-59
2023/06/23 02:42:36;;;;;;;11.02;3.78;;;;;;;;;;5077179;28;20041;-59
2023/06/23 02:45:04;;;;;;;7.38;3.88;;;;;;;;;;5077339;28;20071;-59
2023/06/23 02:47:35;;;;;;;8.02;3.90;;;;;;;;;;5077129;28;20482;-59
2023/06/23 02:50:06;;;;;;;6.00;3.88;;;;;;;;;;5075126;28;20171;-59
2023/06/23 02:52:37;;;;;;;7.15;4.05;;;;;;;;;;5076900;28;20071;-59
2023/06/23 02:55:05;;;;;;;7.05;3.65;;;;;;;;;;5076583;28;20040;-59
2023/06/23 02:57:32;;;;;;;4.68;3.17;;;;;;;;;;5077324;28;20587;-59
2023/06/23 02:59:59;;;;;;;12.07;4.68;;;;;;;;;;5076382;28;21232;-59
2023/06/23 03:02:25;;;;;;;11.43;4.32;;;;;;;;;;5068166;28;20413;-59
2023/06/23 03:04:53;;;;;;;9.15;4.20;;;;;;;;;;5074464;28;20037;-59
2023/06/23 03:07:19;;;;;;;9.32;4.65;;;;;;;;;;5074213;28;20036;-59
2023/06/23 03:09:45;;;;;;;6.15;4.05;;;;;;;;;;5074677;28;20343;-59
2023/06/23 03:12:11;;;;;;;10.20;5.72;;;;;;;;;;5073117;28;20079;-59
2023/06/23 03:14:38;;;;;;;7.72;4.38;;;;;;;;;;5067601;28;20040;-59
2023/06/23 03:17:07;;;;;;;12.35;4.93;;;;;;;;;;5075853;28;20540;-59
2023/06/23 03:19:45;;;;;;;7.60;4.10;;;;;;;;;;5075801;28;20047;-59
2023/06/23 03:22:17;;;;;;;6.88;3.63;;;;;;;;;;5076822;28;20094;-59
2023/06/23 03:24:45;;;;;;;6.97;3.53;;;;;;;;;;5075293;28;20052;-59
2023/06/23 03:27:11;;;;;;;7.63;4.70;;;;;;;;;;5075264;28;20040;-59
2023/06/23 03:30:02;;;;;;;8.95;4.57;;;;;;;;;;5076395;28;20044;-59
2023/06/23 03:32:31;;;;;;;7.50;3.55;;;;;;;;;;5074272;28;20044;-59
2023/06/23 03:35:10;;;;;;;14.10;4.90;;;;;;;;;;5075613;28;20089;-59
2023/06/23 03:37:39;;;;;;;8.88;3.83;;;;;;;;;;5076086;28;20089;-59
2023/06/23 03:40:09;;;;;;;7.13;3.72;;;;;;;;;;5074942;28;20036;-59
2023/06/23 03:42:37;;;;;;;8.82;4.45;;;;;;;;;;5075718;28;20045;-59
2023/06/23 03:45:05;;;;;;;7.32;4.30;;;;;;;;;;5066211;28;20037;-59
2023/06/23 03:47:32;;;;;;;11.57;4.75;;;;;;;;;;5075522;28;20036;-59
2023/06/23 03:50:03;;;;;;;5.95;3.70;;;;;;;;;;5075386;28;20044;-58
2023/06/23 03:52:29;;;;;;;7.03;3.70;;;;;;;;;;5075578;27;20041;-59
2023/06/23 03:54:56;;;;;;;9.68;4.30;;;;;;;;;;5075227;28;20048;-58
2023/06/23 03:57:24;;;;;;;9.15;4.78;;;;;;;;;;5074996;28;20090;-59
2023/06/23 03:59:51;;;;;;;9.07;4.57;;;;;;;;;;5075305;28;20121;-59
2023/06/23 04:02:20;;;;;;;10.57;4.20;;;;;;;;;;5075820;27;20044;-59
2023/06/23 04:04:47;;;;;;;8.65;4.22;;;;;;;;;;5074353;28;20514;-59
2023/06/23 04:07:13;;;;;;;9.50;4.55;;;;;;;;;;5075955;28;20032;-59
2023/06/23 04:09:40;;;;;;;5.72;3.45;;;;;;;;;;5075086;28;20051;-59
2023/06/23 04:12:10;;;;;;;11.38;4.80;;;;;;;;;;5073646;28;20071;-59
2023/06/23 04:14:37;;;;;;;15.02;5.28;;;;;;;;;;5072863;28;20099;-59
2023/06/23 04:17:05;;;;;;;11.48;4.22;;;;;;;;;;5072995;28;20043;-59
2023/06/23 04:19:31;;;;;;;8.95;4.03;;;;;;;;;;5089997;27;20079;-59
2023/06/23 04:21:59;;;;;;;11.75;4.10;;;;;;;;;;5075917;28;20540;-59
2023/06/23 04:24:25;;;;;;;10.10;4.53;;;;;;;;;;5073054;28;20056;-59
2023/06/23 04:26:54;;;;;;;14.77;5.03;;;;;;;;;;5074377;28;20041;-58
2023/06/23 04:29:21;;;;;;;12.20;4.65;;;;;;;;;;5075077;28;20044;-59
2023/06/23 04:31:50;;;;;;;10.48;3.97;;;;;;;;;;5073952;28;20055;-59
2023/06/23 04:34:16;;;;;;;14.40;5.22;;;;;;;;;;5074688;27;20041;-59
2023/06/23 04:36:47;;;;;;;8.80;4.72;;;;;;;;;;5075148;28;20512;-59
2023/06/23 04:39:27;;;;;;;7.95;4.30;;;;;;;;;;5076195;28;20146;-58
2023/06/23 04:41:56;;;;;;;8.35;3.67;;;;;;;;;;5074227;28;20225;-59
2023/06/23 04:44:25;;;;;;;13.43;5.38;;;;;;;;;;5075390;28;20047;-59
2023/06/23 04:46:52;;;;;;;9.45;4.55;;;;;;;;;;5073581;28;20033;-59
2023/06/23 04:49:20;;;;;;;9.40;4.53;;;;;;;;;;5075251;28;20048;-59
2023/06/23 04:51:47;;;;;;;11.57;4.20;;;;;;;;;;5074609;28;20057;-59
2023/06/23 04:54:18;;;;;;;7.93;3.70;;;;;;;;;;5072961;28;20081;-59
2023/06/23 04:56:47;;;;;;;7.85;5.45;;;;;;;;;;5073609;28;20843;-59
2023/06/23 04:59:14;;;;;;;6.68;3.67;;;;;;;;;;5073530;28;20048;-60
2023/06/23 05:01:42;;;;;;;7.47;4.35;;;;;;;;;;5087350;27;20059;-59
2023/06/23 05:04:09;;;;;;;7.43;4.07;;;;;;;;;;5073192;28;20562;-59
2023/06/23 05:06:36;;;;;;;10.55;4.97;;;;;;;;;;5073657;28;20045;-59
2023/06/23 05:09:04;;;;;;;9.93;4.07;;;;;;;;;;5074973;28;20177;-59
2023/06/23 05:11:31;;;;;;;10.88;4.32;;;;;;;;;;5073507;28;20175;-59
2023/06/23 05:13:59;;;;;;;10.52;4.50;;;;;;;;;;5076109;28;20032;-59
2023/06/23 05:16:25;;;;;;;8.05;4.20;;;;;;;;;;5073926;28;20044;-59
2023/06/23 05:18:53;;;;;;;10.10;4.15;;;;;;;;;;5074596;28;20037;-59
2023/06/23 05:21:21;;;;;;;10.27;4.55;;;;;;;;;;5074722;28;20150;-59
2023/06/23 05:23:48;;;;;;;8.75;4.00;;;;;;;;;;5072284;28;20045;-59
2023/06/23 05:26:14;;;;;;;11.70;4.32;;;;;;;;;;5074039;28;20049;-59
2023/06/23 05:28:42;;;;;;;13.80;4.75;;;;;;;;;;5073396;28;20404;-59
2023/06/23 05:31:09;;;;;;;11.27;4.72;;;;;;;;;;5073775;28;20488;-59
2023/06/23 05:33:37;;;;;;;10.98;4.05;;;;;;;;;;5070748;28;20040;-59
2023/06/23 05:36:04;;;;;;;9.00;4.10;;;;;;;;;;5070809;28;20124;-59
2023/06/23 05:38:31;;;;;;;9.18;4.47;;;;;;;;;;5092771;27;20087;-59
2023/06/23 05:40:57;;;;;;;12.55;5.15;;;;;;;;;;5071759;28;20139;-59
2023/06/23 05:43:23;;;;;;;15.45;4.65;;;;;;;;;;5087776;27;20037;-58
2023/06/23 05:45:52;;;;;;;9.93;5.25;;;;;;;;;;5073609;28;21001;-59
2023/06/23 05:48:34;;;;;;;9.23;4.05;;;;;;;;;;5078423;28;20037;-59
2023/06/23 05:51:01;;;;;;;12.20;4.38;;;;;;;;;;5093012;27;20114;-59
2023/06/23 05:53:29;;;;;;;10.48;4.28;;;;;;;;;;5078146;28;20040;-59
2023/06/23 05:56:04;;;;;;;7.57;4.10;;;;;;;;;;5076771;28;20047;-59
2023/06/23 05:58:34;;;;;;;7.25;3.40;;;;;;;;;;5078178;28;20045;-59
2023/06/23 06:01:04;;;;;;;9.05;4.65;;;;;;;;;;5077762;28;20054;-59
2023/06/23 06:03:36;;;;;;;7.40;3.97;;;;;;;;;;5077435;28;20051;-59
2023/06/23 06:06:05;;;;;;;8.93;3.58;;;;;;;;;;5093004;27;20385;-59
2023/06/23 06:08:32;;;;;;;7.18;4.20;;;;;;;;;;5077287;28;20040;-59
2023/06/23 06:10:59;;;;;;;7.35;3.75;;;;;;;;;;5076019;28;20052;-59
2023/06/23 06:13:25;;;;;;;9.00;3.72;;;;;;;;;;5075907;28;20040;-59
2023/06/23 06:15:52;;;;;;;11.98;3.55;;;;;;;;;;5076871;28;20047;-59
2023/06/23 06:18:20;;;;;;;9.52;3.70;;;;;;;;;;5075680;28;21042;-59
2023/06/23 06:20:47;;;;;;;8.35;3.88;;;;;;;;;;5076646;28;20049;-59
2023/06/23 06:23:14;;;;;;;6.35;3.50;;;;;;;;;;5075536;28;20044;-59
2023/06/23 06:25:41;;;;;;;7.70;3.85;;;;;;;;;;5076392;28;20036;-59
2023/06/23 06:28:09;;;;;;;11.77;4.57;;;;;;;;;;5075715;28;20045;-59
2023/06/23 06:30:37;;;;;;;7.07;3.25;;;;;;;;;;5091824;27;20132;-59
2023/06/23 06:33:04;;;;;;;8.00;3.85;;;;;;;;;;5074621;28;20123;-59
2023/06/23 06:35:31;;;;;;;11.55;4.72;;;;;;;;;;5071360;28;20041;-59
2023/06/23 06:37:58;;;;;;;7.70;4.35;;;;;;;;;;5075939;28;20037;-59
2023/06/23 06:40:28;;;;;;;7.65;3.58;;;;;;;;;;5075441;28;20114;-59
2023/06/23 06:42:54;;;;;;;10.05;3.30;;;;;;;;;;5092761;27;20036;-59
2023/06/23 06:45:20;;;;;;;5.05;3.10;;;;;;;;;;5075593;28;20044;-59
2023/06/23 06:47:47;;;;;;;5.43;3.50;;;;;;;;;;5070160;28;20047;-59
2023/06/23 06:50:14;;;;;;;7.88;3.65;;;;;;;;;;5077297;28;20917;-59
2023/06/23 06:52:41;;;;;;;8.52;4.15;;;;;;;;;;5078176;28;20048;-59
2023/06/23 06:55:09;;;;;;;9.15;3.63;;;;;;;;;;5074037;28;20068;-59
2023/06/23 06:57:35;;;;;;;6.43;3.35;;;;;;;;;;5077311;27;20040;-59
2023/06/23 07:00:04;;;;;;;6.28;3.85;;;;;;;;;;5077546;28;20041;-59
2023/06/23 07:02:31;;;;;;;10.95;3.97;;;;;;;;;;5069862;28;20512;-59
2023/06/23 07:04:57;;;;;;;12.88;3.72;;;;;;;;;;5093456;27;20124;-59
2023/06/23 07:07:23;;;;;;;9.68;3.80;;;;;;;;;;5078317;28;20527;-59
2023/06/23 07:09:49;;;;;;;6.05;3.92;;;;;;;;;;5077363;28;20098;-59
2023/06/23 07:12:15;;;;;;;8.98;3.97;;;;;;;;;;5077970;28;20174;-59
2023/06/23 07:14:42;;;;;;;6.60;3.85;;;;;;;;;;5077340;28;20037;-59
2023/06/23 07:17:08;;;;;;;8.82;4.15;;;;;;;;;;5078729;28;20048;-59
2023/06/23 07:19:34;;;;;;;6.75;3.45;;;;;;;;;;5076290;28;20520;-59
2023/06/23 07:22:00;;;;;;;10.27;4.60;;;;;;;;;;5077610;28;20037;-59
2023/06/23 07:24:26;;;;;;;5.55;3.40;;;;;;;;;;5076517;28;20079;-59
2023/06/23 07:26:52;;;;;;;16.92;4.95;;;;;;;;;;5078437;27;20123;-59
2023/06/23 07:29:18;;;;;;;11.43;3.60;;;;;;;;;;5078899;28;20519;-59
2023/06/23 07:31:44;;;;;;;6.10;3.10;;;;;;;;;;5078295;28;20048;-59
2023/06/23 07:34:11;;;;;;;6.45;3.80;;;;;;;;;;5078631;28;20435;-58
2023/06/23 07:36:37;;;;;;;6.20;3.35;;;;;;;;;;5077499;28;20036;-59
2023/06/23 07:39:03;;;;;;;7.28;2.80;;;;;;;;;;5076195;28;20041;-59
2023/06/23 07:41:30;;;;;;;6.18;2.85;;;;;;;;;;5069083;28;20157;-59
2023/06/23 07:43:56;;;;;;;5.43;2.80;;;;;;;;;;5076375;28;20086;-59
2023/06/23 07:46:22;;;;;;;8.10;3.25;;;;;;;;;;5093437;27;20586;-59
2023/06/23 07:48:48;;;;;;;9.10;3.92;;;;;;;;;;5077118;28;20483;-59
2023/06/23 07:51:14;;;;;;;7.43;3.30;;;;;;;;;;5077349;28;20587;-59
2023/06/23 07:53:40;;;;;;;4.15;3.03;;;;;;;;;;5067932;28;20083;-59
2023/06/23 07:56:06;;;;;;;4.25;2.58;;;;;;;;;;5092504;27;20047;-59
2023/06/23 07:58:32;;;;;;;5.63;2.95;;;;;;;;;;5076031;28;20055;-59
2023/06/23 08:00:58;;;;;;;5.78;2.70;;;;;;;;;;5076600;28;20079;-59
2023/06/23 08:03:24;;;;;;;7.85;3.75;;;;;;;;;;5076468;28;20548;-59
2023/06/23 08:05:51;;;;;;;8.45;3.08;;;;;;;;;;5077492;28;20049;-59
2023/06/23 08:08:17;;;;;;;9.02;2.95;;;;;;;;;;5067162;28;20069;-59
2023/06/23 08:10:44;;;;;;;5.95;3.08;;;;;;;;;;5077084;28;20045;-59
2023/06/23 08:13:10;;;;;;;5.15;2.60;;;;;;;;;;5076235;28;20532;-59
2023/06/23 08:15:36;;;;;;;5.60;2.90;;;;;;;;;;5076104;28;20041;-59
2023/06/23 08:18:02;;;;;;;3.10;2.22;;;;;;;;;;5091676;27;20613;-59
2023/06/23 08:20:29;;;;;;;4.57;2.92;;;;;;;;;;5077168;28;20055;-59
2023/06/23 08:22:55;;;;;;;5.05;2.60;;;;;;;;;;5074800;28;20045;-58
2023/06/23 08:25:21;;;;;;;5.78;2.55;;;;;;;;;;5076414;28;20614;-59
2023/06/23 08:27:47;;;;;;;5.22;2.20;;;;;;;;;;5091811;27;20283;-59
2023/06/23 08:30:15;;;;;;;3.58;1.90;;;;;;;;;;5076764;28;20700;-59
2023/06/23 08:32:41;;;;;;;3.58;1.98;;;;;;;;;;5076920;28;20068;-59
2023/06/23 08:35:07;;;;;;;3.25;2.20;;;;;;;;;;5077313;28;20055;-59
2023/06/23 08:37:33;;;;;;;5.57;3.60;;;;;;;;;;5076648;28;20044;-59
2023/06/23 08:39:59;;;;;;;6.53;2.42;;;;;;;;;;5074826;28;20037;-59
2023/06/23 08:42:25;;;;;;;5.55;2.10;;;;;;;;;;5077134;28;20050;-59
2023/06/23 08:44:52;;;;;;;4.80;2.13;;;;;;;;;;5075304;28;20036;-59
2023/06/23 08:47:19;;;;;;;3.38;2.28;;;;;;;;;;5073560;28;20437;-59
2023/06/23 08:49:46;;;;;;;5.80;2.25;;;;;;;;;;5076764;27;20072;-59
2023/06/23 08:52:13;;;;;;;3.70;2.15;;;;;;;;;;5075629;28;20898;-59
2023/06/23 08:54:39;;;;;;;3.88;1.80;;;;;;;;;;5076130;28;20048;-59
2023/06/23 08:57:06;;;;;;;3.70;2.33;;;;;;;;;;5075201;28;20609;-59
2023/06/23 08:59:32;;;;;;;4.25;2.25;;;;;;;;;;5076609;28;20042;-59
2023/06/23 09:01:58;;;;;;;3.70;2.45;;;;;;;;;;5076455;28;20051;-59
2023/06/23 09:04:24;;;;;;;5.53;2.28;;;;;;;;;;5077562;28;20051;-59
2023/06/23 09:06:50;;;;;;;3.10;2.25;;;;;;;;;;5075909;28;20623;-59
2023/06/23 09:09:18;;;;;;;2.83;1.98;;;;;;;;;;5076007;28;20528;-59
2023/06/23 09:11:45;;;;;;;3.45;2.28;;;;;;;;;;5077831;28;20526;-59
2023/06/23 09:14:11;;;;;;;5.43;2.15;;;;;;;;;;5079256;28;20048;-59
2023/06/23 09:16:39;;;;;;;2.60;1.70;;;;;;;;;;5079025;28;20045;-59
2023/06/23 09:19:07;;;;;;;3.53;1.88;;;;;;;;;;5095468;27;20041;-59
2023/06/23 09:21:35;;;;;;;3.90;1.85;;;;;;;;;;5078095;28;20045;-60
2023/06/23 09:24:05;;;;;;;2.65;1.92;;;;;;;;;;5078349;28;20056;-60
2023/06/23 09:26:49;;;;;;;3.67;1.85;;;;;;;;;;5078746;28;20044;-59
2023/06/23 09:29:16;;;;;;;4.55;2.05;;;;;;;;;;5076250;28;20138;-60
2023/06/23 09:31:42;;;;;;;4.35;2.53;;;;;;;;;;5095010;27;20106;-60
2023/06/23 09:34:08;;;;;;;3.20;2.03;;;;;;;;;;5078670;28;20047;-60
2023/06/23 09:36:34;;;;;;;4.00;1.48;;;;;;;;;;5079753;28;20118;-60
2023/06/23 09:39:01;;;;;;;3.28;2.10;;;;;;;;;;5078903;28;20045;-59
2023/06/23 09:41:32;;;;;;;4.45;1.90;;;;;;;;;;5078175;28;20037;-60
2023/06/23 09:43:59;;;;;;;3.37;2.13;;;;;;;;;;5078765;28;20131;-59
2023/06/23 09:46:32;;;;;;;4.35;2.28;;;;;;;;;;5078388;28;20123;-59
2023/06/23 09:49:00;;;;;;;6.97;2.08;;;;;;;;;;5077853;28;20116;-60
2023/06/23 09:51:26;;;;;;;3.72;2.15;;;;;;;;;;5078690;28;20657;-61
2023/06/23 09:53:52;;;;;;;4.15;1.83;;;;;;;;;;5079439;28;20591;-59
2023/06/23 09:56:22;;;;;;;2.55;1.40;;;;;;;;;;5092858;27;20147;-60
2023/06/23 09:58:49;;;;;;;2.72;1.48;;;;;;;;;;5078434;28;20047;-59
2023/06/23 10:01:17;;;;;;;2.58;1.58;;;;;;;;;;5078289;28;20039;-59
2023/06/23 10:03:47;;;;;;;1.85;1.25;;;;;;;;;;5078530;28;20246;-60
2023/06/23 10:06:25;;;;;;;3.70;1.85;;;;;;;;;;5078585;28;20048;-60
2023/06/23 10:08:58;;;;;;;2.00;1.27;;;;;;;;;;5079115;28;20036;-60
2023/06/23 10:11:31;;;;;;;3.90;2.20;;;;;;;;;;5077169;28;20025;-59
2023/06/23 10:13:58;;;;;;;2.60;1.60;;;;;;;;;;5079971;28;20071;-59
2023/06/23 10:16:25;;;;;;;4.13;1.52;;;;;;;;;;5077576;28;20527;-59
2023/06/23 10:18:52;;;;;;;3.63;2.15;;;;;;;;;;5078926;28;20045;-59
2023/06/23 10:21:18;;;;;;;1.98;1.52;;;;;;;;;;5077986;28;20063;-59
2023/06/23 10:23:45;;;;;;;2.17;1.40;;;;;;;;;;5078219;28;20060;-59
2023/06/23 10:26:12;;;;;;;2.65;1.75;;;;;;;;;;5077132;28;20072;-59
2023/06/23 10:28:39;;;;;;;6.10;2.05;;;;;;;;;;5078582;28;20056;-60
2023/06/23 10:31:06;;;;;;;3.42;1.70;;;;;;;;;;5078309;28;20044;-59
2023/06/23 10:33:34;;;;;;;3.65;2.20;;;;;;;;;;5078833;28;20428;-60
2023/06/23 10:36:02;;;;;;;4.45;1.85;;;;;;;;;;5093999;27;20045;-60
2023/06/23 10:38:29;;;;;;;3.10;1.63;;;;;;;;;;5078504;28;21237;-60
2023/06/23 10:40:59;;;;;;;3.78;1.70;;;;;;;;;;5077876;28;20520;-60
2023/06/23 10:43:30;;;;;;;2.83;1.52;;;;;;;;;;5079224;28;20112;-60
2023/06/23 10:45:56;;;;;;;4.32;2.42;;;;;;;;;;5093146;27;20036;-60
2023/06/23 10:48:23;;;;;;;2.72;1.38;;;;;;;;;;5077961;28;20037;-60
2023/06/23 10:50:49;;;;;;;2.17;1.58;;;;;;;;;;5078511;27;20040;-60
2023/06/23 10:53:17;;;;;;;4.70;1.95;;;;;;;;;;5077503;28;20045;-60
2023/06/23 10:55:44;;;;;;;2.40;1.20;;;;;;;;;;5075749;28;20044;-60
2023/06/23 10:58:13;;;;;;;3.13;1.60;;;;;;;;;;5076532;28;20142;-60
2023/06/23 11:00:39;;;;;;;2.45;1.50;;;;;;;;;;5076525;28;20484;-60
2023/06/23 11:03:08;;;;;;;3.75;2.20;;;;;;;;;;5078039;28;20127;-61
2023/06/23 11:05:35;;;;;;;2.60;1.75;;;;;;;;;;5077832;28;20049;-60
2023/06/23 11:08:05;;;;;;;2.85;1.80;;;;;;;;;;5077582;28;20044;-59
2023/06/23 11:10:51;;;;;;;3.22;1.80;;;;;;;;;;5078412;28;20102;-60
2023/06/23 11:13:17;;;;;;;2.28;1.40;;;;;;;;;;5076590;28;20076;-59
2023/06/23 11:15:58;;;;;;;2.47;1.58;;;;;;;;;;5077016;28;20095;-60
2023/06/23 11:18:26;;;;;;;4.25;2.08;;;;;;;;;;5077858;27;20365;-60
2023/06/23 11:20:52;;;;;;;3.05;1.60;;;;;;;;;;5077883;28;20036;-60
2023/06/23 11:23:19;;;;;;;3.33;1.60;;;;;;;;;;5078339;28;20046;-60
2023/06/23 11:25:47;;;;;;;4.03;2.00;;;;;;;;;;5077966;28;20550;-60
2023/06/23 11:28:35;;;;;;;3.25;2.05;;;;;;;;;;5076601;28;20198;-60
2023/06/23 11:31:01;;;;;;;3.50;1.83;;;;;;;;;;5076830;28;20124;-60
2023/06/23 11:33:28;;;;;;;3.08;1.55;;;;;;;;;;5077907;28;20571;-60
2023/06/23 11:35:54;;;;;;;2.92;1.88;;;;;;;;;;5076042;28;20044;-60
2023/06/23 11:38:20;;;;;;;3.25;1.95;;;;;;;;;;5076644;28;20032;-60
2023/06/23 11:40:51;;;;;;;2.58;1.55;;;;;;;;;;5077186;28;20071;-60
2023/06/23 11:43:18;;;;;;;3.47;2.00;;;;;;;;;;5077838;28;20099;-59
2023/06/23 11:45:49;;;;;;;2.78;1.83;;;;;;;;;;5075846;28;20129;-59
2023/06/23 11:48:15;;;;;;;2.88;2.00;;;;;;;;;;5069282;28;20055;-60
2023/06/23 11:50:42;;;;;;;2.70;1.80;;;;;;;;;;5075075;28;20044;-60
2023/06/23 11:53:08;;;;;;;3.28;1.95;;;;;;;;;;5073668;28;20547;-60
2023/06/23 11:55:35;;;;;;;3.55;1.77;;;;;;;;;;5069850;28;20115;-60
2023/06/23 11:58:01;;;;;;;2.47;1.65;;;;;;;;;;5073750;28;20571;-59
2023/06/23 12:00:28;;;;;;;3.15;1.90;;;;;;;;;;5069970;28;20045;-59
2023/06/23 12:02:54;;;;;;;2.88;1.80;;;;;;;;;;5090181;27;20540;-60
2023/06/23 12:05:20;;;;;;;2.50;1.48;;;;;;;;;;5070363;28;20052;-59
2023/06/23 12:07:47;;;;;;;2.65;1.52;;;;;;;;;;5073620;28;20044;-59
2023/06/23 12:10:13;;;;;;;3.45;1.63;;;;;;;;;;5076110;28;20075;-60
2023/06/23 12:12:39;;;;;;;3.22;1.55;;;;;;;;;;5074637;28;20048;-60
2023/06/23 12:15:06;;;;;;;2.97;1.92;;;;;;;;;;5077014;28;20052;-60
2023/06/23 12:17:39;;;;;;;3.85;2.50;;;;;;;;;;5076162;28;20241;-60
2023/06/23 12:20:06;;;;;;;4.10;2.33;;;;;;;;;;5077539;28;20097;-60
2023/06/23 12:22:36;;;;;;;5.68;2.65;;;;;;;;;;5076181;28;20048;-60
2023/06/23 12:25:04;;;;;;;3.25;1.80;;;;;;;;;;5076282;28;20497;-60
2023/06/23 12:27:30;;;;;;;3.60;2.33;;;;;;;;;;5075057;28;20124;-59
2023/06/23 12:29:56;;;;;;;3.75;2.08;;;;;;;;;;5089774;27;20042;-60
2023/06/23 12:32:32;;;;;;;4.43;2.10;;;;;;;;;;5076045;28;20112;-60
2023/06/23 12:34:58;;;;;;;4.28;1.95;;;;;;;;;;5076128;28;20044;-59
2023/06/23 12:37:24;;;;;;;5.32;1.80;;;;;;;;;;5075526;27;20080;-59
2023/06/23 12:39:51;;;;;;;4.90;1.92;;;;;;;;;;5076871;28;21203;-60
2023/06/23 12:42:17;;;;;;;2.85;1.63;;;;;;;;;;5073192;28;20052;-61
2023/06/23 12:44:43;;;;;;;4.82;1.95;;;;;;;;;;5075327;28;20044;-60
2023/06/23 12:47:11;;;;;;;2.55;1.58;;;;;;;;;;5077801;28;20055;-60
2023/06/23 12:49:38;;;;;;;2.45;1.67;;;;;;;;;;5079061;28;20102;-59
2023/06/23 12:52:05;;;;;;;2.55;1.90;;;;;;;;;;5077309;28;20056;-60
2023/06/23 12:54:31;;;;;;;2.80;1.98;;;;;;;;;;5078114;28;20055;-59
2023/06/23 12:57:01;;;;;;;2.92;2.13;;;;;;;;;;5073048;28;20041;-60
2023/06/23 12:59:28;;;;;;;3.75;2.63;;;;;;;;;;5075170;28;20068;-60
2023/06/23 13:01:54;;;;;;;3.70;1.58;;;;;;;;;;5092080;27;20045;-60
2023/06/23 13:04:21;;;;;;;13.95;2.72;;;;;;;;;;5075634;27;20068;-60
2023/06/23 13:06:47;;;;;;;2.72;1.95;;;;;;;;;;5074545;28;20128;-60
2023/06/23 13:09:14;;;;;;;2.85;1.67;;;;;;;;;;5092301;27;20128;-60
2023/06/23 13:11:40;;;;;;;2.90;1.90;;;;;;;;;;5074304;28;20059;-60
2023/06/23 13:14:06;;;;;;;2.53;1.60;;;;;;;;;;5074995;28;20223;-60
2023/06/23 13:16:32;;;;;;;3.20;1.70;;;;;;;;;;5076468;28;20040;-60
2023/06/23 13:18:58;;;;;;;3.42;1.80;;;;;;;;;;5077211;28;20039;-60
2023/06/23 13:21:25;;;;;;;2.45;1.55;;;;;;;;;;5077475;28;21041;-59
2023/06/23 13:23:51;;;;;;;4.25;1.80;;;;;;;;;;5076563;28;20578;-60
2023/06/23 13:26:17;;;;;;;3.40;1.67;;;;;;;;;;5074721;28;20500;-60
2023/06/23 13:28:43;;;;;;;3.55;2.00;;;;;;;;;;5078790;28;20048;-60
2023/06/23 13:31:09;;;;;;;1.92;1.60;;;;;;;;;;5077258;28;20036;-60
2023/06/23 13:33:35;;;;;;;3.10;2.10;;;;;;;;;;5076070;28;20055;-61
2023/06/23 13:36:01;;;;;;;3.80;1.90;;;;;;;;;;5075443;28;20048;-60
2023/06/23 13:38:27;;;;;;;3.38;1.55;;;;;;;;;;5078063;28;20084;-60
2023/06/23 13:40:53;;;;;;;3.05;1.60;;;;;;;;;;5076117;28;20120;-60
2023/06/23 13:43:19;;;;;;;3.35;1.80;;;;;;;;;;5090624;27;20630;-60
2023/06/23 13:45:45;;;;;;;2.53;1.58;;;;;;;;;;5075939;28;20534;-60
2023/06/23 13:48:12;;;;;;;2.55;1.58;;;;;;;;;;5076810;28;20047;-60
2023/06/23 13:50:38;;;;;;;3.33;1.92;;;;;;;;;;5076673;28;20084;-60
2023/06/23 13:53:04;;;;;;;4.53;1.85;;;;;;;;;;5093494;27;20048;-60
2023/06/23 13:55:30;;;;;;;3.78;1.98;;;;;;;;;;5077440;28;20556;-60
2023/06/23 13:57:56;;;;;;;2.25;1.58;;;;;;;;;;5076919;28;20078;-61
2023/06/23 14:00:22;;;;;;;3.97;1.95;;;;;;;;;;5079003;28;20538;-61
2023/06/23 14:02:49;;;;;;;3.30;2.15;;;;;;;;;;5078611;28;20045;-60
2023/06/23 14:05:16;;;;;;;3.47;1.80;;;;;;;;;;5078465;28;20032;-60
2023/06/23 14:07:42;;;;;;;4.93;2.20;;;;;;;;;;5079075;28;20059;-60
2023/06/23 14:10:09;;;;;;;3.15;1.70;;;;;;;;;;5078102;28;20041;-60
2023/06/23 14:12:35;;;;;;;3.67;1.88;;;;;;;;;;5077247;28;20055;-60
2023/06/23 14:15:01;;;;;;;2.88;1.77;;;;;;;;;;5077811;28;20732;-60
2023/06/23 14:17:27;;;;;;;2.75;1.70;;;;;;;;;;5078457;28;20041;-60
2023/06/23 14:19:53;;;;;;;2.58;1.70;;;;;;;;;;5078068;28;20435;-61
2023/06/23 14:22:19;;;;;;;3.35;2.22;;;;;;;;;;5076237;28;20049;-59
2023/06/23 14:24:45;;;;;;;3.28;1.83;;;;;;;;;;5077632;28;20056;-60
2023/06/23 14:27:12;;;;;;;2.75;1.60;;;;;;;;;;5076770;28;20079;-61
2023/06/23 14:29:38;;;;;;;3.22;1.73;;;;;;;;;;5079225;28;20563;-60
2023/06/23 14:32:04;;;;;;;3.17;1.75;;;;;;;;;;5078837;28;20135;-60
2023/06/23 14:34:30;;;;;;;2.53;1.75;;;;;;;;;;5078847;28;20051;-61
2023/06/23 14:36:56;;;;;;;4.25;1.80;;;;;;;;;;5093912;27;20120;-61
2023/06/23 14:39:22;;;;;;;3.08;1.60;;;;;;;;;;5079054;28;20072;-60
2023/06/23 14:41:48;;;;;;;3.40;1.50;;;;;;;;;;5077636;28;20044;-60
2023/06/23 14:44:14;;;;;;;2.83;1.60;;;;;;;;;;5078667;28;20048;-60